Time;durP1;ratioP1;P1;durP2;ratioP2;P2;SDS_P1;SDS_P2;PMS_P1;PMS_P2;Temp;Humidity;BMP_temperature;BMP_pressure;BME280_temperature;BME280_humidity;BME280_pressure;Samples;Min_cycle;Max_cycle;Signal;HPM_P1;HPM_P2
2021/10/21 00:01:30;;;;;;;9.50;3.20;;;7.80;99.90;;;;;;5029234;28;20025;-92
2021/10/21 00:03:59;;;;;;;8.10;3.65;;;7.80;99.90;;;;;;5030827;28;20049;-94
2021/10/21 00:06:25;;;;;;;12.00;3.80;;;7.90;99.90;;;;;;5033932;28;20021;-93
2021/10/21 00:08:51;;;;;;;8.50;3.22;;;7.90;99.90;;;;;;5035002;28;20025;-95
2021/10/21 00:11:17;;;;;;;11.02;3.30;;;7.90;99.90;;;;;;5017682;28;20114;-94
2021/10/21 00:13:43;;;;;;;7.95;2.78;;;7.90;99.90;;;;;;5014217;28;20395;-94
2021/10/21 00:16:08;;;;;;;7.63;1.95;;;7.90;99.90;;;;;;5014531;28;20026;-93
2021/10/21 00:18:34;;;;;;;4.60;1.40;;;7.90;99.90;;;;;;5015267;28;20120;-93
2021/10/21 00:21:00;;;;;;;6.00;1.55;;;8.00;99.90;;;;;;5014930;28;20080;-94
2021/10/21 00:23:26;;;;;;;6.07;1.20;;;8.00;99.90;;;;;;5014244;28;20386;-93
2021/10/21 00:25:51;;;;;;;7.72;1.45;;;8.00;99.90;;;;;;5014783;28;20037;-94
2021/10/21 00:28:17;;;;;;;12.82;1.33;;;8.10;99.90;;;;;;5018120;28;20172;-94
2021/10/21 00:30:43;;;;;;;7.13;2.58;;;8.10;99.90;;;;;;5016223;28;20034;-94
2021/10/21 00:33:09;;;;;;;6.20;1.63;;;8.20;99.90;;;;;;5014450;28;20030;-94
2021/10/21 00:35:35;;;;;;;7.53;1.23;;;8.10;99.90;;;;;;5014220;28;20092;-93
2021/10/21 00:38:00;;;;;;;5.57;1.17;;;8.20;99.90;;;;;;5014165;28;20061;-94
2021/10/21 00:40:26;;;;;;;6.78;1.80;;;8.10;99.90;;;;;;5014339;28;20075;-94
2021/10/21 00:42:52;;;;;;;10.85;1.40;;;8.10;99.90;;;;;;5014574;28;20025;-93
2021/10/21 00:45:18;;;;;;;9.55;1.48;;;8.20;99.90;;;;;;5013467;28;20383;-92
2021/10/21 00:47:44;;;;;;;9.80;1.35;;;8.20;99.90;;;;;;5014473;28;20030;-93
2021/10/21 00:50:09;;;;;;;6.20;1.17;;;8.30;99.90;;;;;;5014043;28;20022;-94
2021/10/21 00:52:37;;;;;;;9.43;1.00;;;8.30;99.90;;;;;;5013795;28;20033;-92
2021/10/21 00:55:03;;;;;;;7.53;1.20;;;8.30;99.90;;;;;;5013652;28;20022;-92
2021/10/21 00:57:29;;;;;;;7.40;1.00;;;8.30;99.90;;;;;;5012951;28;20030;-93
2021/10/21 00:59:56;;;;;;;11.82;1.00;;;8.30;99.90;;;;;;5013370;28;20033;-94
2021/10/21 01:02:22;;;;;;;8.23;1.10;;;8.30;99.90;;;;;;5013712;28;20538;-95
2021/10/21 01:04:47;;;;;;;6.07;1.20;;;8.30;99.90;;;;;;5013305;28;20117;-94
2021/10/21 01:07:13;;;;;;;8.45;1.13;;;8.30;99.90;;;;;;5013097;28;20064;-93
2021/10/21 01:09:42;;;;;;;16.83;1.48;;;8.30;99.90;;;;;;5012985;28;20030;-93
2021/10/21 01:12:11;;;;;;;7.13;1.23;;;8.30;99.90;;;;;;5013452;28;20045;-93
2021/10/21 01:14:37;;;;;;;9.45;1.20;;;8.30;99.90;;;;;;5013645;28;20084;-94
2021/10/21 01:17:03;;;;;;;7.38;1.58;;;8.20;99.90;;;;;;5013160;28;20022;-93
2021/10/21 01:19:29;;;;;;;7.95;2.10;;;8.20;99.90;;;;;;5012706;28;20125;-93
2021/10/21 01:21:56;;;;;;;8.27;1.80;;;8.20;99.90;;;;;;5012067;28;20527;-93
2021/10/21 01:24:26;;;;;;;12.40;2.08;;;8.20;99.90;;;;;;5016450;28;20026;-93
2021/10/21 01:26:54;;;;;;;10.65;2.00;;;8.10;99.90;;;;;;5016769;28;20025;-94
2021/10/21 01:29:22;;;;;;;6.28;1.77;;;8.00;99.90;;;;;;5016870;28;20103;-93
2021/10/21 01:31:49;;;;;;;6.13;1.70;;;8.00;99.90;;;;;;5016888;28;20079;-95
2021/10/21 01:34:15;;;;;;;6.55;1.50;;;8.00;99.90;;;;;;5017072;28;20026;-93
2021/10/21 01:36:44;;;;;;;8.20;1.50;;;8.00;99.90;;;;;;5016994;28;20022;-94
2021/10/21 01:39:12;;;;;;;2.63;1.20;;;8.00;99.90;;;;;;5016918;28;20041;-92
2021/10/21 01:41:38;;;;;;;10.68;1.50;;;8.00;99.90;;;;;;5016773;28;20028;-92
2021/10/21 01:44:04;;;;;;;4.68;1.02;;;8.00;99.90;;;;;;5016839;28;20473;-93
2021/10/21 01:46:30;;;;;;;6.07;1.50;;;7.90;99.90;;;;;;5016666;28;20034;-92
2021/10/21 01:48:56;;;;;;;10.13;1.80;;;7.90;99.90;;;;;;5016670;28;20060;-94
2021/10/21 01:51:22;;;;;;;12.82;3.22;;;7.90;99.90;;;;;;5016304;28;20038;-95
2021/10/21 01:53:48;;;;;;;11.10;1.50;;;8.00;99.90;;;;;;5016270;28;20121;-95
2021/10/21 01:56:14;;;;;;;6.70;1.50;;;7.90;99.90;;;;;;5016302;28;20117;-92
2021/10/21 01:58:39;;;;;;;9.63;1.10;;;8.00;99.90;;;;;;5016785;28;20060;-92
2021/10/21 02:01:05;;;;;;;7.10;1.10;;;7.90;99.90;;;;;;5017963;28;20491;-94
2021/10/21 02:03:31;;;;;;;3.67;1.45;;;7.90;99.90;;;;;;5017209;28;20360;-93
2021/10/21 02:05:57;;;;;;;8.70;1.55;;;7.90;99.90;;;;;;5016033;28;20077;-94
2021/10/21 02:08:22;;;;;;;4.75;1.10;;;8.00;99.90;;;;;;5016645;28;20043;-94
2021/10/21 02:10:48;;;;;;;9.88;1.10;;;8.00;99.90;;;;;;5016018;28;20029;-93
2021/10/21 02:13:14;;;;;;;8.88;2.40;;;8.00;99.90;;;;;;5015859;28;20065;-93
2021/10/21 02:15:40;;;;;;;7.15;2.03;;;8.00;99.90;;;;;;5016033;28;20057;-93
2021/10/21 02:18:06;;;;;;;8.77;2.38;;;8.00;99.90;;;;;;5016039;28;20034;-94
2021/10/21 02:20:32;;;;;;;6.72;2.22;;;8.00;99.90;;;;;;5016010;28;20045;-94
2021/10/21 02:22:58;;;;;;;3.50;1.13;;;8.10;99.90;;;;;;5015732;28;20475;-93
2021/10/21 02:25:24;;;;;;;4.18;1.73;;;8.10;99.90;;;;;;5015587;28;20022;-94
2021/10/21 02:27:50;;;;;;;3.63;1.75;;;8.00;99.90;;;;;;5015792;28;20125;-94
2021/10/21 02:30:18;;;;;;;5.22;1.80;;;8.10;99.90;;;;;;5015526;28;20475;-92
2021/10/21 02:32:44;;;;;;;3.80;1.50;;;8.10;99.90;;;;;;5015799;28;20032;-93
2021/10/21 02:35:11;;;;;;;2.92;1.27;;;8.10;99.90;;;;;;5014697;28;20030;-94
2021/10/21 02:37:38;;;;;;;2.40;1.10;;;8.10;99.90;;;;;;5015581;28;20029;-94
2021/10/21 02:40:06;;;;;;;4.82;1.20;;;8.10;99.90;;;;;;5015458;28;20030;-93
2021/10/21 02:42:32;;;;;;;0.63;0.63;;;8.10;99.90;;;;;;5015885;28;20026;-94
2021/10/21 02:44:58;;;;;;;2.13;0.70;;;8.10;99.90;;;;;;5016170;28;20022;-93
2021/10/21 02:47:24;;;;;;;2.10;0.75;;;8.10;99.90;;;;;;5016113;28;20033;-94
2021/10/21 02:49:49;;;;;;;2.00;0.80;;;8.10;99.90;;;;;;5016196;28;20404;-93
2021/10/21 02:52:15;;;;;;;1.27;0.38;;;8.10;99.90;;;;;;5015635;28;20124;-94
2021/10/21 02:54:41;;;;;;;3.42;0.63;;;8.10;99.90;;;;;;5016223;28;20041;-94
2021/10/21 02:57:07;;;;;;;5.18;0.60;;;8.10;99.90;;;;;;5015835;28;20026;-92
2021/10/21 02:59:33;;;;;;;2.85;0.68;;;8.10;99.90;;;;;;5015823;28;20022;-94
2021/10/21 03:02:00;;;;;;;10.95;3.22;;;8.10;99.90;;;;;;5015652;28;20070;-96
2021/10/21 03:04:25;;;;;;;13.57;1.17;;;8.10;99.90;;;;;;5015954;28;20033;-95
2021/10/21 03:06:51;;;;;;;3.75;0.85;;;8.10;99.90;;;;;;5015644;28;20106;-95
2021/10/21 03:09:17;;;;;;;4.88;0.80;;;8.10;99.90;;;;;;5015057;28;20373;-94
2021/10/21 03:11:43;;;;;;;11.30;1.40;;;8.10;99.90;;;;;;5015639;28;20057;-94
2021/10/21 03:14:08;;;;;;;7.18;1.35;;;8.10;99.90;;;;;;5016346;28;20018;-96
2021/10/21 03:16:35;;;;;;;9.32;1.00;;;8.10;99.90;;;;;;5016031;28;20069;-94
2021/10/21 03:19:05;;;;;;;3.58;0.65;;;8.10;99.90;;;;;;5016758;28;20042;-95
2021/10/21 03:21:32;;;;;;;10.18;1.10;;;8.00;99.90;;;;;;5015471;28;20022;-95
2021/10/21 03:23:58;;;;;;;6.05;1.08;;;8.00;99.90;;;;;;5015080;28;20026;-95
2021/10/21 03:26:25;;;;;;;8.25;1.10;;;8.00;99.90;;;;;;5015515;28;20531;-95
2021/10/21 03:28:51;;;;;;;9.88;1.40;;;8.00;99.90;;;;;;5015424;28;20125;-94
2021/10/21 03:31:17;;;;;;;11.05;1.42;;;8.00;99.90;;;;;;5015120;28;20041;-94
2021/10/21 03:33:44;;;;;;;8.10;1.25;;;8.00;99.90;;;;;;5017070;28;20029;-92
2021/10/21 03:36:09;;;;;;;4.90;0.50;;;7.90;99.90;;;;;;5015529;28;20037;-94
2021/10/21 03:38:35;;;;;;;8.63;1.40;;;8.00;99.90;;;;;;5014632;28;20022;-93
2021/10/21 03:41:02;;;;;;;5.80;0.80;;;7.90;99.90;;;;;;5014981;28;20026;-93
2021/10/21 03:43:28;;;;;;;6.95;1.10;;;7.90;99.90;;;;;;5014713;28;20030;-94
2021/10/21 03:45:53;;;;;;;4.97;1.00;;;7.90;99.90;;;;;;5016385;28;20088;-94
2021/10/21 03:48:19;;;;;;;5.82;0.60;;;7.80;99.90;;;;;;5014878;28;20062;-94
2021/10/21 03:50:46;;;;;;;2.10;0.52;;;7.80;99.90;;;;;;5015183;28;20472;-95
2021/10/21 03:53:13;;;;;;;6.10;2.70;;;7.70;99.90;;;;;;5014779;28;20030;-94
2021/10/21 03:55:40;;;;;;;1.98;0.47;;;7.70;99.90;;;;;;5015173;28;20017;-94
2021/10/21 03:58:06;;;;;;;5.38;0.98;;;7.70;99.90;;;;;;5014754;28;20030;-93
2021/10/21 04:00:31;;;;;;;3.97;0.70;;;7.70;99.90;;;;;;5014739;28;20026;-94
2021/10/21 04:02:57;;;;;;;8.38;0.80;;;7.60;99.90;;;;;;5014722;28;20125;-93
2021/10/21 04:05:24;;;;;;;8.25;1.25;;;7.60;99.90;;;;;;5014310;28;20077;-94
2021/10/21 04:07:50;;;;;;;4.28;0.52;;;7.50;99.90;;;;;;5014398;28;20064;-94
2021/10/21 04:10:16;;;;;;;0.50;0.20;;;7.50;99.90;;;;;;5014557;28;20026;-95
2021/10/21 04:12:41;;;;;;;0.43;0.10;;;7.40;99.90;;;;;;5018052;28;20097;-95
2021/10/21 04:15:08;;;;;;;0.10;0.08;;;7.20;99.90;;;;;;5018830;28;20458;-94
2021/10/21 04:17:38;;;;;;;0.10;0.10;;;6.90;99.90;;;;;;5022728;28;20022;-94
2021/10/21 04:20:04;;;;;;;0.28;0.08;;;6.70;99.90;;;;;;5017866;28;20030;-93
2021/10/21 04:22:30;;;;;;;0.10;0.10;;;6.50;99.90;;;;;;5016298;28;20026;-95
2021/10/21 04:24:56;;;;;;;0.00;0.00;;;6.30;99.90;;;;;;5017825;28;20079;-96
2021/10/21 04:27:22;;;;;;;0.30;0.10;;;6.20;99.90;;;;;;5016567;28;20026;-94
2021/10/21 04:29:48;;;;;;;0.10;0.10;;;6.00;99.90;;;;;;5016201;28;20411;-94
2021/10/21 04:32:14;;;;;;;0.10;0.10;;;6.00;99.90;;;;;;5015139;28;20514;-93
2021/10/21 04:34:40;;;;;;;0.10;0.10;;;5.90;99.90;;;;;;5015944;28;20037;-94
2021/10/21 04:37:06;;;;;;;0.88;0.10;;;5.80;99.90;;;;;;5014396;28;20033;-94
2021/10/21 04:39:32;;;;;;;1.05;0.10;;;5.70;99.90;;;;;;5014674;28;20110;-93
2021/10/21 04:41:58;;;;;;;0.20;0.20;;;5.70;99.90;;;;;;5013480;28;20103;-94
2021/10/21 04:44:23;;;;;;;0.10;0.10;;;5.60;99.90;;;;;;5013962;28;20061;-94
2021/10/21 04:46:49;;;;;;;0.10;0.10;;;5.50;99.90;;;;;;5013700;28;20058;-93
2021/10/21 04:49:15;;;;;;;0.40;0.40;;;5.50;99.90;;;;;;5013611;28;20038;-94
2021/10/21 04:51:41;;;;;;;0.10;0.10;;;5.50;99.90;;;;;;5014156;28;20039;-95
2021/10/21 04:54:07;;;;;;;0.10;0.10;;;5.40;99.90;;;;;;5013929;28;20493;-95
2021/10/21 04:56:32;;;;;;;0.03;0.03;;;5.30;99.90;;;;;;5013895;28;20034;-94
2021/10/21 04:58:58;;;;;;;0.03;0.03;;;5.30;99.90;;;;;;5016563;28;20034;-94
2021/10/21 05:01:24;;;;;;;0.88;0.30;;;5.20;99.90;;;;;;5015839;28;20113;-95
2021/10/21 05:03:54;;;;;;;0.38;0.30;;;5.20;99.90;;;;;;5013389;28;20025;-95
2021/10/21 05:06:20;;;;;;;0.85;0.30;;;5.10;99.90;;;;;;5016268;28;20026;-93
2021/10/21 05:08:45;;;;;;;0.30;0.30;;;5.10;99.90;;;;;;5021824;28;20029;-93
2021/10/21 05:11:11;;;;;;;0.30;0.30;;;5.10;99.90;;;;;;5019274;28;20152;-93
2021/10/21 05:13:37;;;;;;;0.50;0.50;;;5.10;99.90;;;;;;5014416;28;20037;-94
2021/10/21 05:16:02;;;;;;;5.22;0.40;;;5.10;99.90;;;;;;5014392;28;20022;-94
2021/10/21 05:18:28;;;;;;;0.50;0.20;;;5.10;99.90;;;;;;5013839;28;20026;-92
2021/10/21 05:20:54;;;;;;;1.65;0.30;;;5.10;99.90;;;;;;5013435;28;20026;-94
2021/10/21 05:23:19;;;;;;;1.00;0.30;;;5.10;99.90;;;;;;5013441;28;20029;-94
2021/10/21 05:25:46;;;;;;;6.40;0.40;;;5.00;99.90;;;;;;5013290;28;20047;-93
2021/10/21 05:28:13;;;;;;;6.95;0.60;;;5.00;99.90;;;;;;5012820;28;20079;-93
2021/10/21 05:30:39;;;;;;;7.70;0.70;;;5.00;99.90;;;;;;5012772;28;20487;-94
2021/10/21 05:33:05;;;;;;;1.58;0.50;;;5.00;99.90;;;;;;5012893;28;20121;-93
2021/10/21 05:35:31;;;;;;;1.33;0.60;;;4.90;99.90;;;;;;5012996;28;20068;-94
2021/10/21 05:37:57;;;;;;;1.52;0.45;;;4.90;99.90;;;;;;5012694;28;20030;-94
2021/10/21 05:40:23;;;;;;;5.38;0.88;;;4.90;99.90;;;;;;5012917;28;20033;-94
2021/10/21 05:42:49;;;;;;;4.90;0.57;;;5.00;99.90;;;;;;5012518;28;20022;-92
2021/10/21 05:45:15;;;;;;;3.47;0.55;;;5.00;99.90;;;;;;5012407;28;20084;-95
2021/10/21 05:47:45;;;;;;;3.92;0.82;;;4.90;99.90;;;;;;5012693;28;20026;-93
2021/10/21 05:50:17;;;;;;;1.10;0.30;;;4.90;99.90;;;;;;5012527;28;20045;-94
2021/10/21 05:52:43;;;;;;;0.65;0.40;;;4.90;99.90;;;;;;5012506;28;20605;-94
2021/10/21 05:55:09;;;;;;;2.80;0.57;;;4.90;99.90;;;;;;5012952;28;20053;-95
2021/10/21 05:57:34;;;;;;;2.97;0.50;;;4.80;99.90;;;;;;5012601;28;20041;-93
2021/10/21 06:00:00;;;;;;;2.22;0.40;;;4.80;99.90;;;;;;5012893;28;20380;-94
2021/10/21 06:02:26;;;;;;;4.82;0.40;;;4.70;99.90;;;;;;5012941;28;20092;-93
2021/10/21 06:04:51;;;;;;;0.75;0.30;;;4.60;99.90;;;;;;5013226;28;20022;-93
2021/10/21 06:07:17;;;;;;;0.75;0.35;;;4.60;99.90;;;;;;5012733;28;20025;-93
2021/10/21 06:09:44;;;;;;;1.25;0.32;;;4.50;99.90;;;;;;5014179;28;20098;-93
2021/10/21 06:12:10;;;;;;;2.10;0.52;;;4.40;99.90;;;;;;5021008;28;20037;-94
2021/10/21 06:14:36;;;;;;;0.57;0.13;;;4.40;99.90;;;;;;5021146;28;20033;-93
2021/10/21 06:17:02;;;;;;;0.35;0.32;;;4.40;99.90;;;;;;5035183;28;20092;-94
2021/10/21 06:19:28;;;;;;;3.90;0.50;;;4.30;99.90;;;;;;5039575;28;20029;-94
2021/10/21 06:22:05;;;;;;;1.05;0.30;;;4.30;99.90;;;;;;5039620;28;20051;-92
2021/10/21 06:24:31;;;;;;;3.35;0.40;;;4.20;99.90;;;;;;5035988;28;20025;-95
2021/10/21 06:26:57;;;;;;;1.42;0.30;;;4.20;99.90;;;;;;5017608;28;20056;-93
2021/10/21 06:29:23;;;;;;;0.40;0.40;;;4.20;99.90;;;;;;5016250;28;20096;-94
2021/10/21 06:31:49;;;;;;;2.65;0.50;;;4.20;99.90;;;;;;5016585;28;20034;-93
2021/10/21 06:34:15;;;;;;;1.85;0.30;;;4.20;99.90;;;;;;5017903;28;20555;-94
2021/10/21 06:36:41;;;;;;;5.15;0.65;;;4.20;99.90;;;;;;5035704;28;20052;-95
2021/10/21 06:39:07;;;;;;;1.20;0.45;;;4.10;99.90;;;;;;5036497;28;20018;-94
2021/10/21 06:41:33;;;;;;;3.70;0.50;;;4.10;99.90;;;;;;5039120;28;20041;-94
2021/10/21 06:43:59;;;;;;;3.47;0.50;;;4.10;99.90;;;;;;5040642;28;20025;-95
2021/10/21 06:46:26;;;;;;;1.92;0.93;;;4.10;99.90;;;;;;5029662;28;20037;-94
2021/10/21 06:48:51;;;;;;;4.95;0.70;;;4.10;99.90;;;;;;5016472;28;20033;-94
2021/10/21 06:51:17;;;;;;;1.38;0.45;;;4.00;99.90;;;;;;5016845;28;20042;-95
2021/10/21 06:53:43;;;;;;;2.58;0.57;;;4.00;99.90;;;;;;5016556;28;20030;-95
2021/10/21 06:56:09;;;;;;;1.35;0.50;;;4.00;99.90;;;;;;5016152;28;20022;-95
2021/10/21 06:58:34;;;;;;;1.98;0.50;;;4.00;99.90;;;;;;5016031;28;20092;-94
2021/10/21 07:01:03;;;;;;;3.85;0.50;;;3.90;99.90;;;;;;5031222;28;20388;-95
2021/10/21 07:03:28;;;;;;;6.00;0.50;;;3.90;99.90;;;;;;5036926;28;20025;-94
2021/10/21 07:05:54;;;;;;;1.70;0.40;;;3.90;99.90;;;;;;5038431;28;20079;-96
2021/10/21 07:08:23;;;;;;;1.25;0.52;;;3.80;99.90;;;;;;5209934;22;20053;-95
2021/10/21 07:10:48;;;;;;;1.85;0.60;;;3.80;99.90;;;;;;5022160;28;20045;-94
2021/10/21 07:13:14;;;;;;;1.40;0.68;;;3.80;99.90;;;;;;5037192;28;20033;-95
2021/10/21 07:15:40;;;;;;;2.75;0.57;;;3.80;99.90;;;;;;5026939;28;20029;-95
2021/10/21 07:18:05;;;;;;;3.70;0.50;;;3.70;99.90;;;;;;5017851;28;20137;-94
2021/10/21 07:20:31;;;;;;;3.47;0.52;;;3.70;99.90;;;;;;5016410;28;20072;-94
2021/10/21 07:22:57;;;;;;;7.22;0.70;;;3.70;99.90;;;;;;5034654;28;20029;-94
2021/10/21 07:27:49;;;;;;;3.03;0.70;;;3.60;99.90;;;;;;5002172;28;20026;-94
2021/10/21 07:30:17;;;;;;;0.57;0.40;;;3.70;99.90;;;;;;5021859;28;20033;-95
2021/10/21 07:32:43;;;;;;;3.33;0.55;;;3.70;99.90;;;;;;5025580;28;20036;-94
2021/10/21 07:35:09;;;;;;;2.33;0.50;;;3.70;99.90;;;;;;5028185;28;20033;-95
2021/10/21 07:37:37;;;;;;;5.03;0.50;;;3.80;99.90;;;;;;5021330;28;20113;-95
2021/10/21 07:40:04;;;;;;;3.20;0.65;;;3.80;99.90;;;;;;5021524;28;20018;-94
2021/10/21 07:42:34;;;;;;;3.00;0.70;;;3.90;99.90;;;;;;5023240;28;20049;-94
2021/10/21 07:45:00;;;;;;;2.60;0.65;;;3.90;99.90;;;;;;5041099;28;20034;-96
2021/10/21 07:47:28;;;;;;;4.22;0.75;;;3.90;99.90;;;;;;5023303;28;20026;-96
2021/10/21 07:49:55;;;;;;;2.47;0.60;;;4.00;99.90;;;;;;5018649;28;20042;-95
2021/10/21 07:52:25;;;;;;;1.17;0.40;;;4.00;99.90;;;;;;5028789;28;20034;-96
2021/10/21 07:54:52;;;;;;;2.42;0.40;;;4.00;99.90;;;;;;5019643;28;20042;-93
2021/10/21 07:57:20;;;;;;;5.32;0.57;;;4.10;99.90;;;;;;5000559;28;20479;-94
2021/10/21 07:59:47;;;;;;;2.17;0.60;;;4.10;99.90;;;;;;5033905;28;20026;-95
2021/10/21 08:02:13;;;;;;;4.32;0.60;;;4.20;99.90;;;;;;5017555;28;20033;-95
2021/10/21 08:04:38;;;;;;;1.70;0.57;;;4.20;99.90;;;;;;5023697;28;20022;-95
2021/10/21 08:07:05;;;;;;;5.53;1.10;;;4.30;99.90;;;;;;5016236;28;20400;-94
2021/10/21 08:09:34;;;;;;;0.55;0.22;;;4.30;99.90;;;;;;5016337;28;20049;-95
2021/10/21 08:12:03;;;;;;;3.72;0.50;;;4.40;99.90;;;;;;5017341;28;20038;-95
2021/10/21 08:14:30;;;;;;;3.13;0.77;;;4.40;99.90;;;;;;5022456;28;20028;-94
2021/10/21 08:16:59;;;;;;;1.00;0.40;;;4.50;99.90;;;;;;5031097;28;20033;-95
2021/10/21 08:19:29;;;;;;;0.88;0.40;;;4.60;99.90;;;;;;5027383;28;20113;-95
2021/10/21 08:21:57;;;;;;;2.60;0.47;;;4.70;99.90;;;;;;5008672;28;20048;-95
2021/10/21 08:24:24;;;;;;;4.00;0.70;;;4.70;99.90;;;;;;5024333;28;20037;-95
2021/10/21 08:26:52;;;;;;;2.53;0.60;;;4.80;99.90;;;;;;5018125;28;20022;-95
2021/10/21 08:29:25;;;;;;;2.58;0.70;;;4.90;99.90;;;;;;5038917;22;20427;-95
2021/10/21 08:32:02;;;;;;;3.40;0.65;;;4.90;99.90;;;;;;5078051;28;20040;-96
2021/10/21 08:34:34;;;;;;;4.72;0.80;;;5.00;99.90;;;;;;5043134;28;20022;-96
2021/10/21 08:37:02;;;;;;;5.20;1.17;;;5.10;99.90;;;;;;5046966;28;20025;-95
2021/10/21 08:39:27;;;;;;;7.45;1.05;;;5.20;99.90;;;;;;5061237;28;20105;-95
2021/10/21 08:41:53;;;;;;;4.63;0.90;;;5.20;99.90;;;;;;5050773;28;20037;-96
2021/10/21 08:44:19;;;;;;;6.30;1.10;;;5.30;99.90;;;;;;5049249;28;20026;-96
2021/10/21 08:46:52;;;;;;;3.13;0.90;;;5.40;99.90;;;;;;5055042;28;20033;-96
2021/10/21 08:49:23;;;;;;;4.97;0.77;;;5.40;99.90;;;;;;5049815;28;20038;-96
2021/10/21 08:51:52;;;;;;;;;;;5.60;99.90;;;;;;5046424;28;20033;-96
2021/10/21 09:13:38;;;;;;;12.30;2.08;;;6.20;99.90;;;;;;5787267;23;20080;-95
2021/10/21 09:16:27;;;;;;;3.28;0.90;;;6.40;99.90;;;;;;4902602;29;20055;-93
2021/10/21 09:18:57;;;;;;;11.10;1.10;;;6.50;99.90;;;;;;4893241;29;20085;-96
2021/10/21 09:21:57;;;;;;;10.55;0.93;;;6.70;99.90;;;;;;4909606;29;20036;-94
2021/10/21 10:55:48;;;;;;;5.03;1.23;;;12.80;80.90;;;;;;5684654;23;20051;-94
2021/10/21 10:58:15;;;;;;;;;;;12.90;80.30;;;;;;4941862;29;20020;-96
2021/10/21 11:04:32;;;;;;;3.85;0.98;;;13.00;78.20;;;;;;4993363;23;20103;-96
2021/10/21 16:35:36;;;;;;;6.87;1.33;;;13.60;62.80;;;;;;5010573;23;20076;-92
2021/10/21 16:38:03;;;;;;;10.32;1.85;;;13.40;63.10;;;;;;4917925;29;20059;-92
2021/10/21 16:40:29;;;;;;;9.82;1.35;;;12.90;63.80;;;;;;4931451;28;20031;-91
2021/10/21 16:42:55;;;;;;;6.00;1.70;;;12.40;64.90;;;;;;4914672;28;20012;-91
2021/10/21 16:45:23;;;;;;;7.28;2.45;;;11.90;65.90;;;;;;4912962;29;20100;-93
2021/10/21 16:47:49;;;;;;;11.38;1.33;;;11.50;66.90;;;;;;4931035;28;20036;-91
2021/10/21 16:50:16;;;;;;;6.32;1.20;;;11.20;67.70;;;;;;4914143;28;20012;-91
2021/10/21 16:52:42;;;;;;;10.73;1.33;;;10.90;68.20;;;;;;4913968;28;20176;-90
2021/10/21 16:55:08;;;;;;;6.70;1.30;;;10.70;68.80;;;;;;4915282;28;20032;-90
2021/10/21 16:57:34;;;;;;;12.45;1.60;;;10.50;69.40;;;;;;4914513;29;20032;-91
2021/10/21 17:00:00;;;;;;;9.65;1.35;;;10.40;70.20;;;;;;4916882;28;20066;-94
2021/10/21 17:02:28;;;;;;;4.07;1.35;;;10.20;70.60;;;;;;4927669;28;20016;-91
2021/10/21 17:04:54;;;;;;;10.82;1.60;;;10.10;71.10;;;;;;4922009;28;20013;-92
2021/10/21 17:07:21;;;;;;;14.45;1.88;;;10.00;71.70;;;;;;4925104;28;20012;-90
2021/10/21 17:09:50;;;;;;;7.03;2.00;;;9.90;71.90;;;;;;4926884;28;20008;-91
2021/10/21 17:12:20;;;;;;;12.75;1.80;;;9.80;72.10;;;;;;4934108;28;20035;-93
2021/10/21 17:14:49;;;;;;;12.60;2.00;;;9.80;72.40;;;;;;4924426;28;20016;-90
2021/10/21 17:17:16;;;;;;;9.02;2.45;;;9.70;72.90;;;;;;4933490;28;20019;-91
2021/10/21 17:19:44;;;;;;;11.18;2.10;;;9.70;73.30;;;;;;4928286;28;20036;-89
2021/10/21 17:22:14;;;;;;;13.40;1.83;;;9.60;73.70;;;;;;4935771;28;20016;-90
2021/10/21 17:24:40;;;;;;;5.77;1.50;;;9.50;73.90;;;;;;4924069;28;20016;-88
2021/10/21 17:27:07;;;;;;;12.10;1.92;;;9.50;74.50;;;;;;4916187;28;20028;-90
2021/10/21 17:29:34;;;;;;;15.90;2.20;;;9.40;74.70;;;;;;4901455;28;20008;-91
2021/10/21 17:32:00;;;;;;;11.35;2.15;;;9.40;75.10;;;;;;4915577;29;20040;-90
2021/10/21 17:34:26;;;;;;;14.13;2.38;;;9.30;75.50;;;;;;4924496;28;20028;-90
2021/10/21 17:36:53;;;;;;;11.30;1.90;;;9.30;76.00;;;;;;4927137;28;20044;-91
2021/10/21 17:39:21;;;;;;;14.20;2.20;;;9.30;76.20;;;;;;4924194;28;20016;-91
2021/10/21 17:41:49;;;;;;;12.43;2.17;;;9.30;76.80;;;;;;4926077;28;20036;-89
2021/10/21 17:44:17;;;;;;;16.20;2.65;;;9.20;76.90;;;;;;4926021;29;20126;-89
2021/10/21 17:46:43;;;;;;;14.00;2.92;;;9.30;77.50;;;;;;4924532;28;20009;-89
2021/10/21 17:49:11;;;;;;;12.77;2.97;;;9.20;77.70;;;;;;4922884;28;20066;-94
2021/10/21 17:51:38;;;;;;;12.48;1.80;;;9.20;78.10;;;;;;4924158;28;20042;-93
2021/10/21 17:54:08;;;;;;;10.13;1.80;;;9.10;78.40;;;;;;4940232;28;20009;-93
2021/10/21 17:56:39;;;;;;;17.00;2.60;;;9.10;78.80;;;;;;4924616;28;20023;-95
2021/10/21 17:59:11;;;;;;;18.35;2.35;;;9.10;78.90;;;;;;4924199;28;20032;-92
2021/10/21 18:01:40;;;;;;;16.25;2.70;;;9.10;79.30;;;;;;4924385;28;20032;-93
2021/10/21 18:04:10;;;;;;;14.10;2.13;;;9.00;79.20;;;;;;4924437;28;20017;-91
2021/10/21 18:06:39;;;;;;;;;;;9.00;79.40;;;;;;4926739;29;20032;-93
2021/10/21 18:09:05;;;;;;;14.63;2.70;;;8.90;79.80;;;;;;4920627;29;19902;-92
2021/10/21 18:11:31;;;;;;;12.75;2.35;;;8.90;80.00;;;;;;4920615;28;20511;-93
2021/10/21 18:14:04;;;;;;;15.80;2.65;;;8.80;80.10;;;;;;4913291;28;20015;-94
2021/10/21 18:16:30;;;;;;;9.55;1.98;;;8.80;80.60;;;;;;4912164;28;20024;-93
2021/10/21 18:19:05;;;;;;;21.02;2.90;;;8.80;81.00;;;;;;4927705;28;20040;-93
2021/10/21 18:21:38;;;;;;;12.07;2.15;;;8.70;81.40;;;;;;4927781;28;20040;-91
2021/10/21 18:24:08;;;;;;;14.68;2.15;;;8.70;82.00;;;;;;4927433;28;20016;-94
2021/10/21 18:26:45;;;;;;;19.58;3.97;;;8.60;82.50;;;;;;4909512;28;20047;-94
2021/10/21 18:29:24;;;;;;;12.93;2.67;;;8.60;83.60;;;;;;4930545;28;20032;-95
2021/10/21 18:31:56;;;;;;;13.90;2.45;;;8.60;84.70;;;;;;4927064;28;20060;-93
2021/10/21 18:34:28;;;;;;;12.15;3.17;;;8.60;85.70;;;;;;4956671;28;20103;-95
2021/10/21 18:36:59;;;;;;;14.52;3.05;;;8.50;86.30;;;;;;4940477;28;20048;-92
2021/10/21 18:39:30;;;;;;;20.55;3.60;;;8.50;87.30;;;;;;4927429;28;20084;-92
2021/10/21 18:41:58;;;;;;;20.73;3.72;;;8.40;88.10;;;;;;4942467;28;20024;-93
2021/10/21 18:44:38;;;;;;;13.60;2.83;;;8.40;88.90;;;;;;4927407;28;20052;-92
2021/10/21 18:47:15;;;;;;;16.50;3.33;;;8.40;89.70;;;;;;4944645;28;20068;-94
2021/10/21 18:49:49;;;;;;;15.18;2.83;;;8.40;90.10;;;;;;4922874;29;20016;-93
2021/10/21 18:52:26;;;;;;;27.23;3.20;;;8.40;90.50;;;;;;4939988;28;20032;-91
2021/10/21 18:54:52;;;;;;;14.77;2.60;;;8.50;90.80;;;;;;4927203;28;20024;-93
2021/10/21 18:57:20;;;;;;;16.45;2.00;;;8.50;91.00;;;;;;4929841;28;20111;-93
2021/10/21 19:00:00;;;;;;;11.57;2.00;;;8.50;91.20;;;;;;4927296;28;20016;-95
2021/10/21 19:02:29;;;;;;;12.82;2.45;;;8.50;91.50;;;;;;4926690;28;20059;-93
2021/10/21 19:05:02;;;;;;;13.90;1.98;;;8.50;91.70;;;;;;4923997;28;20020;-94
2021/10/21 19:07:45;;;;;;;;;;;;;;;;;;;;;
2021/10/21 19:10:14;;;;;;;17.65;2.60;;;8.50;92.30;;;;;;4893049;28;20043;-94
2021/10/21 19:12:40;;;;;;;17.60;3.03;;;8.50;92.50;;;;;;4923553;28;20039;-95
2021/10/21 19:15:10;;;;;;;16.33;2.58;;;8.40;92.70;;;;;;4921919;28;20027;-94
2021/10/21 19:17:57;;;;;;;11.50;1.90;;;8.40;93.10;;;;;;4923845;28;20040;-93
2021/10/21 19:20:27;;;;;;;10.20;1.65;;;8.40;93.40;;;;;;4942756;28;20020;-93
2021/10/21 19:22:59;;;;;;;18.17;3.10;;;8.40;93.60;;;;;;4919707;28;20016;-95
2021/10/21 19:25:35;;;;;;;14.90;2.10;;;8.40;93.80;;;;;;4930197;28;20016;-93
2021/10/21 19:28:11;;;;;;;14.85;2.20;;;8.40;94.00;;;;;;4920370;28;20024;-93
2021/10/21 19:30:44;;;;;;;19.50;3.25;;;8.40;94.20;;;;;;4933317;28;20017;-93
2021/10/21 19:33:13;;;;;;;12.27;3.03;;;8.30;94.70;;;;;;4921801;28;20040;-94
2021/10/21 19:35:43;;;;;;;9.55;2.15;;;8.30;94.90;;;;;;4925035;29;20036;-95
2021/10/21 19:38:12;;;;;;;13.10;2.33;;;8.30;95.20;;;;;;4929387;28;20081;-94
2021/10/21 19:40:40;;;;;;;12.93;2.65;;;8.20;95.40;;;;;;4929592;28;20031;-95
2021/10/21 19:43:06;;;;;;;12.23;2.67;;;8.20;95.70;;;;;;4908515;28;20048;-92
2021/10/21 19:45:34;;;;;;;13.73;2.70;;;8.20;96.00;;;;;;4925971;28;20027;-94
2021/10/21 19:48:04;;;;;;;15.90;2.97;;;8.20;96.20;;;;;;4933914;28;20012;-96
2021/10/21 19:50:30;;;;;;;12.48;2.97;;;8.20;96.50;;;;;;4917254;29;20023;-94
2021/10/21 19:52:58;;;;;;;8.93;1.75;;;8.20;96.80;;;;;;4915991;29;20096;-93
2021/10/21 19:55:24;;;;;;;12.82;2.75;;;8.20;97.20;;;;;;4927297;28;20039;-95
2021/10/21 19:57:50;;;;;;;17.63;3.78;;;8.10;97.50;;;;;;4936651;28;20080;-92
2021/10/21 20:00:16;;;;;;;15.23;2.72;;;8.10;97.90;;;;;;4940725;28;20031;-94
2021/10/21 20:02:43;;;;;;;11.43;1.80;;;8.10;98.40;;;;;;4938632;28;20052;-94
2021/10/21 20:05:14;;;;;;;11.80;2.25;;;8.10;99.00;;;;;;4922844;29;20012;-96
2021/10/21 20:07:43;;;;;;;10.38;1.65;;;8.10;99.50;;;;;;4933709;29;20040;-94
2021/10/21 20:10:17;;;;;;;7.63;2.03;;;8.00;99.80;;;;;;4918414;29;20043;-95
2021/10/21 20:12:55;;;;;;;11.40;1.90;;;8.00;99.90;;;;;;4924531;29;20035;-94
2021/10/21 20:15:21;;;;;;;11.73;1.95;;;8.00;99.90;;;;;;4940060;29;20036;-94
2021/10/21 20:17:48;;;;;;;12.70;2.65;;;8.00;99.90;;;;;;4929614;29;20024;-96
2021/10/21 20:20:22;;;;;;;11.85;1.70;;;7.90;99.90;;;;;;4928928;29;20019;-93
2021/10/21 20:22:48;;;;;;;12.68;2.60;;;7.90;99.90;;;;;;4934727;29;20044;-94